Tuesday, May 21, 2019, 2:47 PM EDT
Back to Local

KMGJ, Montgomery Orange Co Airport

Location: Montgomery, NY, United States Lat: 41.517
Local Time: 2:47 PM EDT (18:47 GMT) Lon: -74.267
Time Zone: US/Eastern Elev: 354 ft

Show me the last for .
Show Decoded

2019-05-21 13:54 METAR KMGJ 211754Z AUTO 33016G26KT 10SM CLR 19/04 A2991 RMK AO2 PK WND
                 34030/1717 SLP126 T01940039 10194 20111 56012 TSNO =
2019-05-21 12:54 METAR KMGJ 211654Z AUTO 31014G22KT 270V350 10SM CLR 19/06 A2991 RMK AO2 PK WND
                 35030/1640 SLP128 T01890056 TSNO =
2019-05-21 11:54 METAR KMGJ 211554Z AUTO 30010G21KT 10SM CLR 17/05 A2993 RMK AO2 SLP134 T01670050
                 TSNO =
2019-05-21 10:54 METAR KMGJ 211454Z AUTO 30012G19KT 10SM CLR 15/04 A2994 RMK AO2 SLP138 T01500039
                 55000 TSNO =
2019-05-21 09:54 METAR KMGJ 211354Z AUTO 32015G23KT 10SM CLR 13/03 A2995 RMK AO2 PK WND
                 32029/1319 SLP140 T01330028 TSNO =
2019-05-21 08:54 METAR KMGJ 211254Z AUTO 33011G22KT 10SM CLR 13/03 A2993 RMK AO2 PK WND
                 34026/1219 SLP133 T01280028 TSNO =
2019-05-21 07:54 METAR KMGJ 211154Z AUTO 32008G19KT 10SM FEW044 11/03 A2994 RMK AO2 SLP138 70003
                 T01110028 10150 20106 53025 TSNO =
2019-05-21 06:54 METAR KMGJ 211054Z AUTO 31012G19KT 10SM OVC044 11/03 A2992 RMK AO2 SLP131
                 T01110033 TSNO =
2019-05-21 05:54 METAR KMGJ 210954Z AUTO 30012G21KT 10SM OVC045 12/03 A2989 RMK AO2 SLP120
                 T01170033 TSNO =
2019-05-21 04:54 METAR KMGJ 210854Z AUTO 30013G20KT 10SM OVC043 13/05 A2987 RMK AO2 SLP113
                 T01280050 53012 TSNO =
2019-05-21 03:54 METAR KMGJ 210754Z AUTO 30014G20KT 10SM OVC047 14/05 A2985 RMK AO2 SLP106
                 T01390050 TSNO =
2019-05-21 02:54 METAR KMGJ 210654Z AUTO 31011KT 10SM OVC049 14/05 A2985 RMK AO2 SLP106 T01440050
                 TSNO =
2019-05-21 01:54 METAR KMGJ 210554Z AUTO 32012G20KT 10SM BKN047 15/07 A2983 RMK AO2 SLP101
                 T01500067 10239 20144 52009 TSNO =
2019-05-21 00:54 METAR KMGJ 210454Z AUTO 31012KT 10SM CLR 16/07 A2982 RMK AO2 SLP097 T01560072
                 402670156 TSNO =
2019-05-20 23:54 METAR KMGJ 210354Z AUTO 31011G21KT 10SM CLR 17/09 A2982 RMK AO2 SLP096 T01670089
                 TSNO =
2019-05-20 22:54 METAR KMGJ 210254Z AUTO 32015G25KT 10SM FEW065 19/10 A2981 RMK AO2 SLP091
                 T01890100 53039 TSNO =
2019-05-20 21:54 METAR KMGJ 210154Z AUTO 33015G22KT 10SM CLR 21/13 A2976 RMK AO2 PRESRR SLP075
                 T02110133 TSNO =
2019-05-20 20:54 METAR KMGJ 210054Z AUTO 24007KT 10SM CLR 22/12 A2971 RMK AO2 SLP057 T02170122
                 TSNO =
2019-05-20 19:54 METAR KMGJ 202354Z AUTO 25008KT 10SM CLR 24/12 A2969 RMK AO2 SLP052 60003
                 T02390122 10267 20222 53002 TSNO =
2019-05-20 18:54 METAR KMGJ 202254Z AUTO 26013G21KT 10SM CLR 26/12 A2968 RMK AO2 SLP049 T02560117
                 TSNO =
2019-05-20 17:54 METAR KMGJ 202154Z AUTO 21007KT 10SM CLR 25/19 A2968 RMK AO2 SLP048 T02500194
                 TSNO =
2019-05-20 16:54 METAR KMGJ 202054Z AUTO 22008KT 10SM CLR 23/21 A2969 RMK AO2 RAB09E34 SLP051
                 P0003 60003 T02330206 57015 TSNO =
2019-05-20 15:54 METAR KMGJ 201954Z AUTO 24007KT 10SM SCT044 BKN055 26/18 A2970 RMK AO2 SLP053
                 T02560178 TSNO =
2019-05-20 14:54 METAR KMGJ 201854Z AUTO 23012KT 10SM FEW045 BKN065 BKN090 24/18 A2972 RMK AO2
                 SLP061 T02440178 TSNO =

Support USWX by starting your Amazon purchase here.